createdAt,value
2023-01-11T00:00:46.909Z,1.94
2023-01-11T00:03:13.437Z,2.13
2023-01-11T00:05:41.626Z,1.95
2023-01-11T00:08:08.999Z,2.10
2023-01-11T00:10:36.185Z,2.04
2023-01-11T00:13:03.469Z,1.90
2023-01-11T00:15:30.494Z,1.78
2023-01-11T00:17:57.717Z,1.97
2023-01-11T00:20:24.522Z,1.90
2023-01-11T00:22:50.997Z,1.94
2023-01-11T00:25:17.851Z,1.93
2023-01-11T00:27:44.325Z,1.75
2023-01-11T00:30:11.561Z,1.89
2023-01-11T00:32:38.048Z,1.80
2023-01-11T00:35:04.909Z,1.87
2023-01-11T00:37:31.436Z,1.88
2023-01-11T00:39:58.005Z,1.85
2023-01-11T00:42:42.838Z,1.65
2023-01-11T00:45:28.644Z,1.74
2023-01-11T00:47:57.983Z,1.80
2023-01-11T00:50:25.583Z,1.68
2023-01-11T00:52:52.106Z,1.71
2023-01-11T00:55:18.877Z,1.84
2023-01-11T00:57:45.368Z,1.71
2023-01-11T01:00:12.636Z,1.56
2023-01-11T01:02:39.244Z,1.98
2023-01-11T01:05:06.253Z,1.86
2023-01-11T01:07:32.706Z,1.86
2023-01-11T01:09:59.149Z,1.82
2023-01-11T01:12:43.988Z,1.82
2023-01-11T01:15:10.885Z,1.73
2023-01-11T01:17:37.309Z,1.72
2023-01-11T01:20:04.341Z,1.86
2023-01-11T01:22:30.841Z,1.70
2023-01-11T01:24:57.307Z,1.80
2023-01-11T01:27:23.786Z,1.89
2023-01-11T01:29:50.225Z,1.92
2023-01-11T01:32:16.775Z,1.90
2023-01-11T01:34:43.322Z,1.79
2023-01-11T01:37:11.273Z,1.99
2023-01-11T01:39:38.512Z,1.97
2023-01-11T01:42:06.062Z,1.91
2023-01-11T01:45:16.786Z,1.96
2023-01-11T01:47:53.581Z,2.05
2023-01-11T01:50:29.517Z,2.09
2023-01-11T01:53:03.248Z,2.00
2023-01-11T01:55:36.290Z,2.13
2023-01-11T01:58:07.225Z,2.11
2023-01-11T02:00:33.919Z,2.09
2023-01-11T02:03:01.993Z,2.24
2023-01-11T02:12:49.560Z,2.24
2023-01-11T02:15:18.375Z,2.38
2023-01-11T02:17:44.940Z,2.23
2023-01-11T02:20:19.972Z,2.34
2023-01-11T02:22:46.465Z,2.39
2023-01-11T02:25:12.856Z,2.39
2023-01-11T02:28:22.423Z,2.29
2023-01-11T02:31:07.415Z,2.29
2023-01-11T02:33:36.531Z,2.50
2023-01-11T02:36:12.349Z,2.37
2023-01-11T02:38:57.912Z,2.36
2023-01-11T02:41:57.011Z,2.66
2023-01-11T02:44:47.332Z,2.43
2023-01-11T02:47:21.624Z,2.46
2023-01-11T02:49:59.853Z,2.52
2023-01-11T02:52:55.803Z,2.43
2023-01-11T02:55:27.690Z,2.55
2023-01-11T02:57:57.663Z,2.57
2023-01-11T03:00:25.620Z,2.48
2023-01-11T03:03:13.571Z,2.49
2023-01-11T03:06:03.155Z,2.51
2023-01-11T03:08:58.704Z,2.32
2023-01-11T03:12:17.751Z,2.48
2023-01-11T03:14:56.412Z,2.54
2023-01-11T03:17:28.802Z,2.41
2023-01-11T03:20:26.833Z,2.34
2023-01-11T03:23:27.375Z,2.24
2023-01-11T03:25:57.011Z,2.35
2023-01-11T03:28:59.915Z,2.54
2023-01-11T03:31:38.535Z,2.31
2023-01-11T03:34:26.665Z,2.41
2023-01-11T03:37:01.750Z,2.42
2023-01-11T03:39:54.054Z,2.38
2023-01-11T03:42:24.101Z,2.52
2023-01-11T03:44:55.348Z,2.55
2023-01-11T03:47:25.203Z,2.56
2023-01-11T03:50:01.440Z,2.51
2023-01-11T03:52:32.558Z,2.53
2023-01-11T03:55:00.792Z,2.66
2023-01-11T03:57:37.702Z,2.58
2023-01-11T04:00:07.536Z,2.51
2023-01-11T04:02:40.169Z,2.72
2023-01-11T04:05:09.304Z,2.69
2023-01-11T04:07:35.953Z,2.62
2023-01-11T04:10:03.739Z,2.53
2023-01-11T04:12:30.189Z,2.68
2023-01-11T04:14:56.701Z,2.72
2023-01-11T04:17:23.364Z,2.75
2023-01-11T04:19:49.871Z,2.70
2023-01-11T04:22:16.386Z,2.70
2023-01-11T04:24:43.030Z,2.62
2023-01-11T04:27:09.529Z,2.65
2023-01-11T04:29:36.181Z,2.74
2023-01-11T04:32:03.651Z,2.80
2023-01-11T04:34:30.130Z,2.91
2023-01-11T04:36:56.687Z,2.66
2023-01-11T04:39:23.201Z,2.80
2023-01-11T04:42:08.046Z,2.73
2023-01-11T04:44:34.537Z,2.87
2023-01-11T04:47:00.956Z,2.69
2023-01-11T04:49:27.590Z,2.81
2023-01-11T04:51:54.043Z,2.79
2023-01-11T04:54:20.516Z,2.70
2023-01-11T04:56:46.932Z,2.90
2023-01-11T04:59:14.222Z,2.77
2023-01-11T05:01:40.817Z,2.69
2023-01-11T05:04:07.277Z,2.64
2023-01-11T05:06:33.876Z,2.74
2023-01-11T05:09:00.401Z,2.71
2023-01-11T05:11:26.901Z,2.88
2023-01-11T05:13:53.334Z,2.65
2023-01-11T05:16:23.742Z,2.68
2023-01-11T05:18:51.724Z,2.75
2023-01-11T05:21:21.748Z,2.95
2023-01-11T05:23:49.032Z,2.72
2023-01-11T05:26:22.845Z,2.86
2023-01-11T05:28:50.578Z,2.74
2023-01-11T05:31:17.318Z,2.88
2023-01-11T05:33:44.478Z,2.81
2023-01-11T05:36:14.284Z,2.94
2023-01-11T05:38:40.835Z,2.95
2023-01-11T05:41:09.738Z,3.02
2023-01-11T05:43:55.540Z,3.15
2023-01-11T05:46:22.318Z,2.94
2023-01-11T05:48:49.132Z,3.07
2023-01-11T05:51:15.892Z,3.20
2023-01-11T05:53:42.507Z,3.10
2023-01-11T05:56:09.308Z,2.96
2023-01-11T05:58:35.885Z,3.17
2023-01-11T06:01:02.399Z,3.23
2023-01-11T06:03:28.839Z,3.18
2023-01-11T06:05:55.443Z,3.13
2023-01-11T06:08:21.888Z,3.24
2023-01-11T06:10:55.887Z,3.33
2023-01-11T06:13:26.669Z,3.04
2023-01-11T06:16:06.907Z,3.06
2023-01-11T06:18:36.584Z,3.26
2023-01-11T06:21:04.452Z,3.02
2023-01-11T06:23:33.946Z,3.14
2023-01-11T06:26:05.099Z,3.19
2023-01-11T06:28:31.659Z,3.30
2023-01-11T06:30:59.406Z,3.17
2023-01-11T06:33:27.814Z,3.15
2023-01-11T06:35:54.778Z,3.14
2023-01-11T06:38:23.505Z,3.15
2023-01-11T06:41:00.315Z,3.05
2023-01-11T06:43:28.357Z,3.25
2023-01-11T06:45:55.283Z,3.20
2023-01-11T06:48:22.744Z,3.06
2023-01-11T06:50:54.783Z,3.08
2023-01-11T06:53:22.370Z,3.11
2023-01-11T06:55:52.848Z,3.25
2023-01-11T06:58:20.418Z,3.26
2023-01-11T07:00:47.327Z,3.07
2023-01-11T07:03:13.852Z,3.12
2023-01-11T07:05:41.213Z,3.15
2023-01-11T07:08:08.432Z,3.21
2023-01-11T07:10:35.064Z,3.13
2023-01-11T07:13:01.761Z,3.10
2023-01-11T07:15:28.515Z,3.11
2023-01-11T07:17:59.758Z,3.05
2023-01-11T07:20:26.903Z,2.99
2023-01-11T07:22:58.281Z,3.05
2023-01-11T07:25:25.856Z,3.08
2023-01-11T07:27:59.749Z,3.06
2023-01-11T07:30:28.439Z,3.14
2023-01-11T07:32:57.017Z,3.03
2023-01-11T07:35:23.484Z,3.19
2023-01-11T07:37:50.098Z,3.09
2023-01-11T07:40:18.001Z,3.13
2023-01-11T07:43:13.417Z,3.15
2023-01-11T07:45:45.703Z,3.03
2023-01-11T07:48:13.785Z,3.13
2023-01-11T07:50:44.265Z,3.11
2023-01-11T07:53:12.274Z,3.30
2023-01-11T07:55:39.773Z,3.29
2023-01-11T07:58:07.740Z,3.25
2023-01-11T08:00:34.290Z,3.04
2023-01-11T08:03:01.659Z,3.31
2023-01-11T08:05:28.396Z,3.29
2023-01-11T08:07:54.981Z,3.29
2023-01-11T08:10:21.562Z,3.28
2023-01-11T08:13:07.555Z,3.27
2023-01-11T08:15:39.385Z,3.38
2023-01-11T08:18:06.412Z,3.48
2023-01-11T08:20:33.168Z,3.51
2023-01-11T08:23:06.201Z,3.39
2023-01-11T08:25:36.142Z,3.27
2023-01-11T08:28:05.463Z,3.47
2023-01-11T08:30:32.323Z,3.51
2023-01-11T08:33:00.980Z,3.72
2023-01-11T08:35:27.848Z,3.62
2023-01-11T08:37:54.515Z,3.59
2023-01-11T08:40:23.852Z,3.78
2023-01-11T08:42:55.338Z,3.76
2023-01-11T08:45:22.167Z,3.86
2023-01-11T08:47:50.731Z,3.97
2023-01-11T08:50:18.676Z,3.81
2023-01-11T08:52:45.909Z,3.96
2023-01-11T08:55:12.483Z,3.91
2023-01-11T08:57:39.209Z,3.98
2023-01-11T09:00:07.478Z,3.83
2023-01-11T09:02:34.280Z,4.00
2023-01-11T09:05:00.884Z,3.94
2023-01-11T09:07:27.376Z,4.01
2023-01-11T09:09:53.912Z,4.14
2023-01-11T09:12:20.409Z,4.07
2023-01-11T09:14:46.942Z,3.85
2023-01-11T09:17:13.439Z,4.10
2023-01-11T09:19:39.920Z,4.18
2023-01-11T09:22:06.400Z,4.23
2023-01-11T09:24:33.008Z,4.06
2023-01-11T09:27:00.427Z,4.00
2023-01-11T09:29:27.098Z,3.96
2023-01-11T09:31:53.763Z,3.96
2023-01-11T09:34:21.012Z,3.74
2023-01-11T09:36:49.049Z,3.73
2023-01-11T09:39:18.829Z,3.66
2023-01-11T09:41:45.277Z,3.58
2023-01-11T09:44:18.998Z,3.61
2023-01-11T09:46:51.314Z,3.53
2023-01-11T09:49:31.371Z,3.62
2023-01-11T09:52:21.733Z,3.57
2023-01-11T09:54:48.230Z,3.53
2023-01-11T09:57:18.312Z,3.60
2023-01-11T09:59:52.901Z,3.67
2023-01-11T10:02:59.216Z,3.57
2023-01-11T10:05:29.845Z,3.58
2023-01-11T10:18:31.010Z,3.70
2023-01-11T10:19:12.344Z,3.72
2023-01-11T10:21:27.258Z,3.75
2023-01-11T10:23:58.048Z,3.80
2023-01-11T10:26:32.365Z,3.86
2023-01-11T10:29:16.501Z,3.92
2023-01-11T10:31:59.766Z,3.62
2023-01-11T10:34:59.965Z,3.71
2023-01-11T10:37:49.989Z,3.86
2023-01-11T10:40:40.632Z,3.82
2023-01-11T10:43:21.852Z,3.82
2023-01-11T10:45:52.868Z,3.85
2023-01-11T10:48:28.324Z,3.82
2023-01-11T10:50:54.902Z,3.92
2023-01-11T10:53:28.224Z,3.70
2023-01-11T10:56:06.858Z,3.92
2023-01-11T10:59:06.170Z,3.94
2023-01-11T11:01:46.373Z,4.02
2023-01-11T11:04:42.625Z,4.10
2023-01-11T11:07:24.177Z,4.16
2023-01-11T11:10:26.311Z,4.16
2023-01-11T11:13:07.423Z,4.02
2023-01-11T11:15:40.900Z,3.98
2023-01-11T11:18:07.652Z,3.96
2023-01-11T11:20:34.792Z,4.11
2023-01-11T11:23:01.869Z,4.12
2023-01-11T11:25:37.731Z,4.28
2023-01-11T11:28:07.087Z,4.16
2023-01-11T11:30:39.523Z,4.08
2023-01-11T11:33:27.935Z,4.29
2023-01-11T11:36:02.188Z,4.09
2023-01-11T11:38:31.013Z,4.17
2023-01-11T11:41:17.748Z,4.21
2023-01-11T11:43:47.232Z,4.14
2023-01-11T11:46:18.912Z,4.24
2023-01-11T11:49:15.728Z,4.23
2023-01-11T11:51:45.169Z,4.19
2023-01-11T11:54:28.440Z,4.15
2023-01-11T11:56:57.603Z,4.27
2023-01-11T11:59:28.507Z,4.22
2023-01-11T12:02:00.791Z,4.28
2023-01-11T12:04:39.976Z,4.39
2023-01-11T12:07:16.116Z,4.50
2023-01-11T12:09:47.594Z,4.38
2023-01-11T12:12:24.958Z,4.31
2023-01-11T12:15:20.938Z,4.30
2023-01-11T12:17:48.097Z,4.44
2023-01-11T12:20:23.951Z,4.75
2023-01-11T12:23:15.719Z,4.77
2023-01-11T12:26:11.179Z,4.57
2023-01-11T12:29:14.728Z,4.68
2023-01-11T12:32:05.843Z,4.75
2023-01-11T12:34:45.813Z,4.74
2023-01-11T12:37:30.086Z,4.68
2023-01-11T12:40:17.361Z,4.74
2023-01-11T12:43:03.581Z,4.62
2023-01-11T12:45:59.433Z,4.73
2023-01-11T12:48:36.416Z,4.73
2023-01-11T12:51:37.139Z,4.68
2023-01-11T12:54:29.553Z,4.79
2023-01-11T12:57:31.968Z,4.69
2023-01-11T13:00:01.036Z,4.87
2023-01-11T13:02:36.386Z,4.80
2023-01-11T13:05:29.197Z,4.85
2023-01-11T13:08:16.548Z,4.76
2023-01-11T13:11:35.224Z,4.85
2023-01-11T13:14:30.906Z,4.79
2023-01-11T13:17:18.696Z,4.80
2023-01-11T13:20:06.914Z,4.74
2023-01-11T13:22:38.776Z,4.86
2023-01-11T13:25:16.887Z,4.88
2023-01-11T13:27:44.954Z,4.97
2023-01-11T13:30:14.066Z,4.90
2023-01-11T13:32:44.387Z,5.22
2023-01-11T13:35:18.387Z,4.89
2023-01-11T13:37:52.327Z,4.95
2023-01-11T13:40:24.831Z,4.95
2023-01-11T13:46:47.304Z,5.04
2023-01-11T13:49:29.215Z,4.95
2023-01-11T13:52:04.275Z,5.03
2023-01-11T13:54:56.678Z,4.96
2023-01-11T13:57:34.313Z,5.18
2023-01-11T14:00:11.189Z,5.00
2023-01-11T14:02:48.059Z,5.17
2023-01-11T14:05:18.718Z,5.06
2023-01-11T14:08:15.117Z,4.92
2023-01-11T14:11:09.595Z,5.02
2023-01-11T14:14:15.703Z,5.29
2023-01-11T14:17:04.268Z,5.33
2023-01-11T14:19:55.198Z,5.09
2023-01-11T14:22:45.531Z,5.31
2023-01-11T14:25:33.156Z,5.29
2023-01-11T14:28:49.151Z,5.35
2023-01-11T14:31:40.665Z,5.20
2023-01-11T14:34:22.459Z,5.31
2023-01-11T14:37:08.161Z,5.28
2023-01-11T14:39:53.259Z,5.25
2023-01-11T14:42:45.104Z,5.25
2023-01-11T14:45:16.686Z,5.21
2023-01-11T14:48:20.592Z,5.18
2023-01-11T14:51:33.210Z,5.35
2023-01-11T14:54:12.199Z,5.28
2023-01-11T14:56:49.866Z,5.24
2023-01-11T14:59:40.350Z,5.21
2023-01-11T15:02:16.303Z,4.99
2023-01-11T15:04:52.385Z,5.31
2023-01-11T15:07:31.556Z,5.43
2023-01-11T15:10:07.177Z,5.20
2023-01-11T15:12:41.333Z,5.35
2023-01-11T15:15:24.921Z,5.42
2023-01-11T15:18:15.832Z,5.34
2023-01-11T15:21:01.820Z,5.34
2023-01-11T15:23:39.926Z,5.47
2023-01-11T15:26:15.547Z,5.34
2023-01-11T15:29:12.463Z,5.59
2023-01-11T15:32:17.969Z,5.45
2023-01-11T15:35:19.643Z,5.37
2023-01-11T15:38:14.228Z,5.42
2023-01-11T15:44:41.766Z,5.48
2023-01-11T15:47:11.155Z,5.57
2023-01-11T15:50:02.647Z,5.55
2023-01-11T15:52:34.998Z,5.41
2023-01-11T15:55:23.807Z,5.65
2023-01-11T16:01:23.641Z,5.72
2023-01-11T16:04:10.574Z,5.75
2023-01-11T16:07:10.324Z,5.61
2023-01-11T16:10:01.565Z,5.65
2023-01-11T16:13:23.366Z,5.64
2023-01-11T16:16:31.828Z,6.04
2023-01-11T16:19:09.872Z,5.89
2023-01-11T16:21:49.434Z,5.81
2023-01-11T16:24:20.914Z,5.90
2023-01-11T16:27:17.409Z,5.90
2023-01-11T16:29:50.689Z,5.90
2023-01-11T16:32:27.238Z,6.00
2023-01-11T16:34:55.728Z,5.98
2023-01-11T16:37:36.086Z,6.02
2023-01-11T16:40:15.539Z,5.98
2023-01-11T16:42:48.536Z,5.91
2023-01-11T16:45:23.837Z,5.87
2023-01-11T16:48:23.099Z,6.11
2023-01-11T16:51:07.279Z,6.10
2023-01-11T16:53:37.179Z,6.10
2023-01-11T16:56:05.825Z,5.93
2023-01-11T16:58:40.320Z,5.96
2023-01-11T17:01:12.558Z,5.90
2023-01-11T17:03:54.201Z,6.11
2023-01-11T17:06:23.355Z,6.12
2023-01-11T17:08:55.654Z,6.08
2023-01-11T17:11:42.747Z,6.17
2023-01-11T17:14:37.664Z,6.08
2023-01-11T17:17:09.812Z,6.01
2023-01-11T17:19:43.429Z,6.28
2023-01-11T17:22:27.698Z,6.42
2023-01-11T17:25:01.145Z,6.20
2023-01-11T17:27:41.175Z,6.04
2023-01-11T17:30:19.814Z,5.94
2023-01-11T17:32:49.302Z,5.87
2023-01-11T17:35:24.511Z,6.05
2023-01-11T17:38:03.250Z,6.27
2023-01-11T17:40:33.024Z,6.34
2023-01-11T17:43:30.148Z,6.18
2023-01-11T17:45:58.780Z,6.23
2023-01-11T17:48:29.571Z,6.05
2023-01-11T17:50:59.276Z,6.22
2023-01-11T17:53:29.307Z,5.89
2023-01-11T17:56:00.116Z,6.12
2023-01-11T17:58:33.864Z,5.96
2023-01-11T18:01:09.386Z,6.13
2023-01-11T18:03:48.351Z,6.18
2023-01-11T18:06:41.375Z,6.17
2023-01-11T18:09:29.528Z,6.03
2023-01-11T18:12:18.074Z,6.23
2023-01-11T18:14:52.436Z,6.07
2023-01-11T18:17:24.683Z,6.09
2023-01-11T18:19:51.158Z,6.06
2023-01-11T18:22:26.384Z,6.20
2023-01-11T18:24:54.679Z,6.09
2023-01-11T18:27:32.462Z,5.99
2023-01-11T18:30:02.450Z,5.95
2023-01-11T18:32:35.373Z,6.04
2023-01-11T18:35:02.095Z,5.83
2023-01-11T18:37:28.569Z,5.90
2023-01-11T18:39:55.083Z,5.81
2023-01-11T18:42:26.820Z,5.82
2023-01-11T18:44:53.346Z,5.73
2023-01-11T18:47:28.360Z,5.79
2023-01-11T18:49:55.397Z,5.65
2023-01-11T18:52:27.639Z,6.02
2023-01-11T18:54:56.037Z,5.85
2023-01-11T18:57:23.583Z,5.89
2023-01-11T18:59:54.356Z,5.72
2023-01-11T19:02:25.713Z,6.02
2023-01-11T19:04:57.179Z,6.07
2023-01-11T19:07:26.001Z,5.85
2023-01-11T19:09:54.756Z,5.94
2023-01-11T19:12:21.493Z,5.96
2023-01-11T19:14:48.050Z,5.87
2023-01-11T19:17:14.605Z,5.79
2023-01-11T19:19:41.604Z,5.79
2023-01-11T19:22:09.775Z,5.81
2023-01-11T19:24:36.399Z,5.87
2023-01-11T19:27:03.649Z,5.77
2023-01-11T19:29:30.714Z,5.80
2023-01-11T19:31:57.335Z,5.91
2023-01-11T19:34:24.176Z,5.80
2023-01-11T19:36:52.422Z,5.84
2023-01-11T19:39:19.467Z,5.75
2023-01-11T19:41:55.370Z,5.76
2023-01-11T19:44:22.813Z,5.78
2023-01-11T19:46:56.738Z,5.60
2023-01-11T19:49:23.625Z,5.56
2023-01-11T19:51:51.001Z,5.55
2023-01-11T19:54:20.654Z,5.43
2023-01-11T19:56:48.689Z,5.51
2023-01-11T19:59:15.686Z,5.58
2023-01-11T20:01:42.859Z,5.62
2023-01-11T20:04:10.838Z,5.47
2023-01-11T20:06:40.853Z,5.41
2023-01-11T20:09:09.883Z,5.46
2023-01-11T20:11:36.745Z,5.49
2023-01-11T20:14:03.218Z,5.42
2023-01-11T20:16:29.714Z,5.49
2023-01-11T20:18:57.292Z,5.29
2023-01-11T20:21:27.558Z,5.38
2023-01-11T20:23:57.570Z,5.36
2023-01-11T20:26:24.559Z,5.27
2023-01-11T20:28:54.461Z,5.36
2023-01-11T20:31:27.279Z,5.39
2023-01-11T20:33:55.208Z,5.27
2023-01-11T20:36:21.821Z,5.32
2023-01-11T20:38:48.266Z,5.23
2023-01-11T20:41:36.880Z,5.25
2023-01-11T20:44:04.869Z,5.31
2023-01-11T20:46:31.763Z,5.19
2023-01-11T20:48:58.307Z,5.16
2023-01-11T20:51:24.755Z,5.08
2023-01-11T20:53:51.482Z,5.12
2023-01-11T20:56:18.616Z,4.99
2023-01-11T20:58:48.661Z,4.97
2023-01-11T21:01:27.764Z,4.96
2023-01-11T21:03:57.389Z,4.98
2023-01-11T21:06:24.171Z,4.91
2023-01-11T21:08:55.233Z,4.89
2023-01-11T21:11:21.940Z,5.02
2023-01-11T21:13:50.500Z,4.97
2023-01-11T21:16:17.060Z,5.07
2023-01-11T21:18:44.006Z,4.89
2023-01-11T21:21:19.050Z,4.94
2023-01-11T21:23:46.761Z,4.88
2023-01-11T21:26:16.331Z,4.97
2023-01-11T21:28:44.277Z,4.88
2023-01-11T21:31:12.846Z,4.91
2023-01-11T21:33:39.744Z,4.72
2023-01-11T21:36:11.550Z,4.84
2023-01-11T21:38:38.535Z,4.68
2023-01-11T21:41:10.719Z,4.66
2023-01-11T21:43:37.729Z,4.65
2023-01-11T21:46:06.518Z,4.51
2023-01-11T21:48:33.622Z,4.44
2023-01-11T21:51:00.191Z,4.54
2023-01-11T21:53:33.414Z,4.61
2023-01-11T21:56:07.872Z,4.47
2023-01-11T21:58:35.365Z,4.44
2023-01-11T22:01:11.185Z,4.30
2023-01-11T22:03:38.164Z,4.30
2023-01-11T22:06:05.106Z,4.29
2023-01-11T22:08:35.437Z,4.26
2023-01-11T22:11:04.383Z,4.36
2023-01-11T22:13:34.123Z,4.26
2023-01-11T22:16:06.669Z,4.30
2023-01-11T22:18:34.743Z,4.21
2023-01-11T22:21:07.335Z,4.25
2023-01-11T22:23:34.022Z,4.14
2023-01-11T22:26:05.513Z,4.27
2023-01-11T22:28:32.161Z,4.10
2023-01-11T22:31:07.873Z,4.02
2023-01-11T22:33:36.498Z,4.02
2023-01-11T22:36:04.478Z,3.91
2023-01-11T22:38:30.890Z,3.90
2023-01-11T22:40:59.593Z,3.91
2023-01-11T22:43:26.074Z,3.91
2023-01-11T22:46:00.378Z,3.96
2023-01-11T22:48:27.599Z,3.78
2023-01-11T22:50:55.088Z,3.73
2023-01-11T22:53:21.734Z,3.82
2023-01-11T22:55:48.255Z,3.83
2023-01-11T22:58:14.680Z,3.85
2023-01-11T23:00:41.159Z,3.72
2023-01-11T23:03:07.891Z,3.66
2023-01-11T23:05:34.516Z,3.65
2023-01-11T23:08:01.096Z,3.65
2023-01-11T23:10:27.542Z,3.59
2023-01-11T23:13:12.423Z,3.74
2023-01-11T23:15:39.553Z,3.66
2023-01-11T23:18:07.078Z,3.56
2023-01-11T23:20:34.594Z,3.58
2023-01-11T23:23:01.335Z,3.46
2023-01-11T23:25:27.776Z,3.59
2023-01-11T23:27:54.269Z,3.45
2023-01-11T23:30:20.927Z,3.53
2023-01-11T23:32:47.341Z,3.57
2023-01-11T23:35:13.864Z,3.48
2023-01-11T23:37:40.393Z,3.49
2023-01-11T23:40:07.862Z,3.34
2023-01-11T23:42:35.495Z,3.37
2023-01-11T23:45:01.964Z,3.46
2023-01-11T23:47:31.404Z,3.36
2023-01-11T23:50:00.751Z,3.36
2023-01-11T23:52:30.297Z,3.31
2023-01-11T23:54:57.434Z,3.30
2023-01-11T23:57:25.426Z,3.26
2023-01-11T23:59:52.315Z,3.22
